Share

Friona, TX (79035)

9:05 PM CDT on April 24, 2014 (GMT -0500)
WT_Meso Friona 2NE (MFAST2) Elev 4004 ft | 34.65 °N, 102.69 °W | Change Station
Active Advisory: Fire Weather Watch

Current weather conditions updated 40 minutes ago

Clear
Clear
66 °F
Feels Like 66 °F
N
8
Wind Variable Wind from South
Gusts 9.0 mph
Sunrise 7:08 AM
Sunset 8:30 PM
Moon Waning Crescent

Tomorrow is forecast to be Much Warmer than today.

Pressure 30.00 in
Visibility -9999.0 miles
Clouds Clear
Dew Point 23 °F
Humidity 19%
Rainfall -999.00 in
Snow Depth Not available.
UV 0 out of 16
Pollen 8.00 out of 12
Air Quality Not available.
Flu Activity Local Activity
METAR KCVN 250155Z AUTO 18007KT CLR 17/M02 A3000 RMK AO1

More Conditions Fewer Conditions

Pressure 30.00 in
Visibility -9999.0 miles
Clouds Clear
Dew Point 23 °F
Humidity 19%
Rainfall -999.00 in
Snow Depth Not available.
UV 0 out of 16
Pollen 8.00 out of 12
Air Quality Not available.
Flu Activity Local Activity
METAR KCVN 250155Z AUTO 18007KT CLR 17/M02 A3000 RMK AO1

More Conditions Fewer Conditions

10-Day Weather Forecast

Almanac

Astronomy

Apr. 24, 2014 Rise Set
Actual Time 7:08 AM CDT 8:30 PM CDT
Civil Twilight 6:41 AM CDT 8:56 PM CDT
Nautical Twilight 6:10 AM CDT 9:28 PM CDT
Astronomical Twilight 5:37 AM CDT 10:01 PM CDT
Moon 4:08 AM CDT (4/24) 3:59 PM CDT (4/24)
Length of Visible Light 14h 14m
Length of Day
13h 21m
Tomorrow will be 1m 56s longer.
Waning Crescent, 20% of the Moon is Illuminated
Today
Waning Crescent
Apr 29
New
May 6
First Quarter
May 14
Full
May 21
Last Quarter

Today's Extremes

State Highs State Lows

Community

  • Critter
    Critter
  • Jone Runs Falls
    Jone Runs Falls
  • Easter in Shenandoah National Park
    Easter in Shenandoah National Park
  • Sunset at Apalachicola Bay, Florida
    Sunset at Apalachicola Bay, Florida
  • Clouds mov'n in
    Clouds mov'n in

WunderPhotos

Upload Photos

1,704,795 photos uploaded!

Nearby

Snow Depth

Station Depth Elevation
No new snow has been reported.

Coastal Water Temperatures

Place Temperature
No Stations Reporting

Earthquake Activity

City Distance Mag. Time & Date
No recent earthquake activity has been reported nearby.
Minimum magnitude displayed is 2.5.

Nearby Weather Stations

Station Location Temp. Dew Point Humidity Wind Precip. Elev Updated Type
WT_Meso Friona 2NE, Friona, TX 66 °F 23 °F 19% South  at  8 mph 0.00 in / hr 4004 ft 8:25 PM CDT MADIS
RAWS BOOTLEG TX, Friona, TX 67 °F 22 °F 18% SSW  at  9 mph 0.00 in / hr 4058 ft 8:03 PM CDT MADIS

Show More Stations Show Fewer Stations

What do you think?

We're not finished. Please let us know what you like, what you don't like, and what you are still missing.